Map

Track Data

SID SEASON NUMBER BASIN SUBBASIN NAME ISO_TIME NATURE LAT LON WMO_WIND WMO_PRES WMO_AGENCY TRACK_TYPE DIST2LAND LANDFALL IFLAG USA_AGENCY USA_ATCF_ID USA_LAT USA_LON USA_RECORD USA_STATUS USA_WIND USA_PRES USA_SSHS USA_R34_NE USA_R34_SE USA_R34_SW USA_R34_NW USA_R50_NE USA_R50_SE USA_R50_SW USA_R50_NW USA_R64_NE USA_R64_SE USA_R64_SW USA_R64_NW USA_POCI USA_ROCI USA_RMW USA_EYE TOKYO_LAT TOKYO_LON TOKYO_GRADE TOKYO_WIND TOKYO_PRES TOKYO_R50_DIR TOKYO_R50_LONG TOKYO_R50_SHORT TOKYO_R30_DIR TOKYO_R30_LONG TOKYO_R30_SHORT TOKYO_LAND CMA_LAT CMA_LON CMA_CAT CMA_WIND CMA_PRES HKO_LAT HKO_LON HKO_CAT HKO_WIND HKO_PRES NEWDELHI_LAT NEWDELHI_LON NEWDELHI_GRADE NEWDELHI_WIND NEWDELHI_PRES NEWDELHI_CI NEWDELHI_DP NEWDELHI_POCI REUNION_LAT REUNION_LON REUNION_TYPE REUNION_WIND REUNION_PRES REUNION_TNUM REUNION_CI REUNION_RMW REUNION_R34_NE REUNION_R34_SE REUNION_R34_SW REUNION_R34_NW REUNION_R50_NE REUNION_R50_SE REUNION_R50_SW REUNION_R50_NW REUNION_R64_NE REUNION_R64_SE REUNION_R64_SW REUNION_R64_NW BOM_LAT BOM_LON BOM_TYPE BOM_WIND BOM_PRES BOM_TNUM BOM_CI BOM_RMW BOM_R34_NE BOM_R34_SE BOM_R34_SW BOM_R34_NW BOM_R50_NE BOM_R50_SE BOM_R50_SW BOM_R50_NW BOM_R64_NE BOM_R64_SE BOM_R64_SW BOM_R64_NW BOM_ROCI BOM_POCI BOM_EYE BOM_POS_METHOD BOM_PRES_METHOD NADI_LAT NADI_LON NADI_CAT NADI_WIND NADI_PRES WELLINGTON_LAT WELLINGTON_LON WELLINGTON_WIND WELLINGTON_PRES DS824_LAT DS824_LON DS824_STAGE DS824_WIND DS824_PRES TD9636_LAT TD9636_LON TD9636_STAGE TD9636_WIND TD9636_PRES TD9635_LAT TD9635_LON TD9635_WIND TD9635_PRES TD9635_ROCI NEUMANN_LAT NEUMANN_LON NEUMANN_CLASS NEUMANN_WIND NEUMANN_PRES MLC_LAT MLC_LON MLC_CLASS MLC_WIND MLC_PRES USA_GUST BOM_GUST BOM_GUST_PER REUNION_GUST REUNION_GUST_PER USA_SEAHGT USA_SEARAD_NE USA_SEARAD_SE USA_SEARAD_SW USA_SEARAD_NW STORM_SPEED STORM_DIR
1982262N12270 1982 81 EP MM PAUL 1982-09-18 18:00:00 TS 11.7000 -90.0000 30 hurdat_epa main 202 182 O_________O___ hurdat_epa EP161982 11.7000 -90.0000 TD 30 -1 11.7000 -90.0000 1 30 7 323
1982262N12270 1982 81 EP MM PAUL 1982-09-18 21:00:00 TS 11.9595 -90.1985 main 173 155 P_________P___ EP161982 11.9600 -90.2048 TD 30 -1 11.9577 -90.1797 1 30 6 330
1982262N12270 1982 81 EP MM PAUL 1982-09-19 00:00:00 TS 12.2000 -90.3000 30 hurdat_epa main 155 134 O_________O___ hurdat_epa EP161982 12.2000 -90.3000 TD 30 -1 12.2000 -90.3000 1 30 5 356
1982262N12270 1982 81 EP MM PAUL 1982-09-19 03:00:00 TS 12.4097 -90.2466 main 130 105 P_________P___ EP161982 12.4075 -90.2226 TD 30 -1 12.4162 -90.3184 1 30 4 21
1982262N12270 1982 81 EP MM PAUL 1982-09-19 06:00:00 TS 12.6034 -90.1404 30 hurdat_epa main 105 84 O_________P___ hurdat_epa EP161982 12.6000 -90.1000 TD 30 -1 12.6136 -90.2617 1 30 4 20
1982262N12270 1982 81 EP MM PAUL 1982-09-19 09:00:00 TS 12.8011 -90.1016 main 84 64 P_________P___ EP161982 12.8000 -90.0775 TD 30 -1 12.8043 -90.1741 1 30 4 4
1982262N12270 1982 81 EP MM PAUL 1982-09-19 12:00:00 TS 13.0000 -90.1000 30 hurdat_epa main 64 46 O_________O___ hurdat_epa EP161982 13.0000 -90.1000 TD 30 -1 13.0000 -90.1000 1 30 4 355
1982262N12270 1982 81 EP MM PAUL 1982-09-19 15:00:00 TS 13.2049 -90.1312 main 46 39 P_________P___ EP161982 13.1925 -90.1500 TD 30 -1 13.2421 -90.0750 1 30 4 350
1982262N12270 1982 81 EP MM PAUL 1982-09-19 18:00:00 TS 13.4218 -90.1688 30 hurdat_epa main 39 11 O_________P___ hurdat_epa EP161982 13.4000 -90.2000 TD 30 -1 13.4874 -90.0750 1 30 5 356
1982262N12270 1982 81 EP MM PAUL 1982-09-19 21:00:00 TS 13.6716 -90.1669 main 11 0 P_________P___ EP161982 13.6575 -90.1851 TD 30 -1 13.7140 -90.1125 1 30 5 355
1982262N12270 1982 81 EP MM PAUL 1982-09-20 00:00:00 TS 13.9000 -90.2000 30 hurdat_epa main 0 0 O_________O___ hurdat_epa EP161982 13.9000 -90.2000 TD 30 -1 13.9000 -90.2000 1 30 4 340
1982262N12270 1982 81 EP MM PAUL 1982-09-20 03:00:00 TS 14.0762 -90.3156 main 0 0 P_________P___ EP161982 14.0875 -90.3124 TD 30 -1 14.0424 -90.3252 1 30 4 314
1982262N12270 1982 81 EP MM PAUL 1982-09-20 06:00:00 TS 14.1850 -90.5006 30 hurdat_epa main 0 0 O_________P___ hurdat_epa EP161982 14.2000 -90.5000 TD 30 -1 14.1398 -90.5023 1 30 4 290
1982262N12270 1982 81 EP MM PAUL 1982-09-20 09:00:00 TS 14.2262 -90.7390 main 0 0 P_________P___ EP161982 14.2375 -90.7425 TD 30 -1 14.1923 -90.7283 1 30 5 272
1982262N12270 1982 81 EP MM PAUL 1982-09-20 12:00:00 TS 14.2000 -91.0000 30 hurdat_epa main 0 0 O_________O___ hurdat_epa EP161982 14.2000 -91.0000 TD 30 -1 14.2000 -91.0000 1 30 5 256
1982262N12270 1982 81 EP MM PAUL 1982-09-20 15:00:00 TS 14.1143 -91.1917 main 0 0 P_________P___ EP161982 14.1073 -91.1625 TD 30 -1 14.1354 -91.2791 1 30 5 246
1982262N12270 1982 81 EP MM PAUL 1982-09-20 18:00:00 TS 14.0086 -91.4509 30 hurdat_epa main 10 10 O_________P___ hurdat_epa EP161982 14.0000 -91.4000 TD 30 -1 14.0346 -91.6035 1 30 7 254
1982262N12270 1982 81 EP MM PAUL 1982-09-20 21:00:00 TS 13.9255 -91.8854 main 35 35 P_________P___ EP161982 13.9201 -91.8551 TD 30 -1 13.9415 -91.9761 1 30 9 263
1982262N12270 1982 81 EP MM PAUL 1982-09-21 00:00:00 TS 13.9000 -92.4000 30 hurdat_epa main 70 70 O_________O___ hurdat_epa EP161982 13.9000 -92.4000 TD 30 -1 13.9000 -92.4000 1 30 10 273
1982262N12270 1982 81 EP MM PAUL 1982-09-21 03:00:00 TS 13.9754 -92.8868 main 93 93 P_________P___ EP161982 13.9699 -92.8925 TD 30 -1 13.9919 -92.8698 1 30 10 282
1982262N12270 1982 81 EP MM PAUL 1982-09-21 06:00:00 TS 14.1088 -93.3972 30 hurdat_epa main 124 124 O_________P___ hurdat_epa EP161982 14.1000 -93.4000 TD 30 -1 14.1350 -93.3889 1 30 11 286
1982262N12270 1982 81 EP MM PAUL 1982-09-21 09:00:00 TS 14.2644 -93.9358 main 147 147 P_________P___ EP161982 14.2574 -93.9349 TD 30 -1 14.2856 -93.9386 1 30 11 285
1982262N12270 1982 81 EP MM PAUL 1982-09-21 12:00:00 TS 14.4000 -94.5000 30 hurdat_epa main 186 169 O_________O___ hurdat_epa EP161982 14.4000 -94.5000 TD 30 -1 14.4000 -94.5000 1 30 11 280
1982262N12270 1982 81 EP MM PAUL 1982-09-21 15:00:00 TS 14.4722 -95.0944 main 169 148 P_________P___ EP161982 14.4875 -95.1075 TD 27 -1 14.4261 -95.0553 1 28 11 274
1982262N12270 1982 81 EP MM PAUL 1982-09-21 18:00:00 TS 14.4775 -95.6789 25 hurdat_epa main 144 138 O_________P___ hurdat_epa EP161982 14.5000 -95.7000 TD 25 -1 14.4099 -95.6154 1 27 11 267
1982262N12270 1982 81 EP MM PAUL 1982-09-21 21:00:00 TS 14.4076 -96.2033 main 141 134 P_________P___ EP161982 14.4223 -96.2151 TD 25 -1 14.3637 -96.1677 1 26 10 260
1982262N12270 1982 81 EP MM PAUL 1982-09-22 00:00:00 TS 14.3000 -96.7000 25 hurdat_epa main 145 145 O_________O___ hurdat_epa EP161982 14.3000 -96.7000 TD 25 -1 14.3000 -96.7000 1 25 10 258
1982262N12270 1982 81 EP MM PAUL 1982-09-22 03:00:00 TS 14.2051 -97.2048 main 169 169 P_________P___ EP161982 14.1924 -97.2075 TD 22 -1 14.2429 -97.1965 1 23 10 259
1982262N12270 1982 81 EP MM PAUL 1982-09-22 06:00:00 TS 14.1180 -97.6931 20 hurdat_epa main 203 203 O_________P___ hurdat_epa EP161982 14.1000 -97.7000 TD 20 -1 14.1718 -97.6724 1 22 9 261
1982262N12270 1982 81 EP MM PAUL 1982-09-22 09:00:00 TS 14.0598 -98.1467 main 215 215 P_________P___ EP161982 14.0498 -98.1499 TD 20 -1 14.0899 -98.1371 1 21 9 262
1982262N12270 1982 81 EP MM PAUL 1982-09-22 12:00:00 TS 14.0000 -98.6000 20 hurdat_epa main 239 239 O_________O___ hurdat_epa EP161982 14.0000 -98.6000 TD 20 -1 14.0000 -98.6000 1 20 9 260
1982262N12270 1982 81 EP MM PAUL 1982-09-22 15:00:00 TS 13.9053 -99.0938 main 273 273 P_________P___ EP161982 13.9075 -99.1000 TD 20 -1 13.8988 -99.0751 1 20 10 258
1982262N12270 1982 81 EP MM PAUL 1982-09-22 18:00:00 TS 13.7980 -99.5875 20 hurdat_epa main 299 299 O_________P___ hurdat_epa EP161982 13.8000 -99.6000 TD 20 -1 13.7921 -99.5501 1 20 9 257
1982262N12270 1982 81 EP MM PAUL 1982-09-22 21:00:00 TS 13.6916 -100.044 main 327 327 P_________P___ EP161982 13.6923 -100.050 TD 20 -1 13.6894 -100.025 1 20 9 257
1982262N12270 1982 81 EP MM PAUL 1982-09-23 00:00:00 TS 13.6000 -100.500 20 hurdat_epa main 357 357 O_________O___ hurdat_epa EP161982 13.6000 -100.500 TD 20 -1 13.6000 -100.500 1 20 9 261
1982262N12270 1982 81 EP MM PAUL 1982-09-23 03:00:00 TS 13.5397 -100.995 main 384 384 P_________P___ EP161982 13.5425 -101.000 TD 20 -1 13.5313 -100.979 1 20 10 264
1982262N12270 1982 81 EP MM PAUL 1982-09-23 06:00:00 TS 13.4943 -101.489 20 hurdat_epa main 407 407 O_________P___ hurdat_epa EP161982 13.5000 -101.500 TD 20 -1 13.4772 -101.457 1 20 9 264
1982262N12270 1982 81 EP MM PAUL 1982-09-23 09:00:00 TS 13.4460 -101.951 main 444 444 P_________P___ EP161982 13.4499 -101.957 TD 20 -1 13.4345 -101.932 1 20 9 264
1982262N12270 1982 81 EP MM PAUL 1982-09-23 12:00:00 TS 13.4000 -102.400 20 hurdat_epa main 458 458 O_________O___ hurdat_epa EP161982 13.4000 -102.400 TD 20 -1 13.4000 -102.400 1 20 9 263
1982262N12270 1982 81 EP MM PAUL 1982-09-23 15:00:00 TS 13.3427 -102.862 main 487 487 P_________P___ EP161982 13.3424 -102.850 TD 20 -1 13.3436 -102.898 1 22 9 264
1982262N12270 1982 81 EP MM PAUL 1982-09-23 18:00:00 TS 13.2994 -103.321 20 hurdat_epa main 506 506 O_________P___ hurdat_epa EP161982 13.3000 -103.300 TD 20 -1 13.2977 -103.383 1 25 9 266
1982262N12270 1982 81 EP MM PAUL 1982-09-23 21:00:00 TS 13.2776 -103.786 main 533 533 P_________P___ EP161982 13.2775 -103.773 TD 25 -1 13.2780 -103.826 1 27 9 270
1982262N12270 1982 81 EP MM PAUL 1982-09-24 00:00:00 TS 13.3000 -104.200 30 hurdat_epa main 553 553 O_________O___ hurdat_epa EP161982 13.3000 -104.200 TD 30 -1 13.3000 -104.200 1 30 7 278
1982262N12270 1982 81 EP MM PAUL 1982-09-24 03:00:00 TS 13.3774 -104.538 main 553 549 P_________P___ EP161982 13.3774 -104.552 TD 30 -1 13.3774 -104.496 1 30 6 289
1982262N12270 1982 81 EP MM PAUL 1982-09-24 06:00:00 TS 13.4993 -104.780 30 hurdat_epa main 553 546 O_________P___ hurdat_epa EP161982 13.5000 -104.800 TD 30 -1 13.4971 -104.720 1 30 5 304
1982262N12270 1982 81 EP MM PAUL 1982-09-24 09:00:00 TS 13.6370 -104.930 main 546 528 P_________P___ EP161982 13.6349 -104.945 TD 30 -1 13.6432 -104.884 1 30 4 325
1982262N12270 1982 81 EP MM PAUL 1982-09-24 12:00:00 TS 13.8000 -105.000 30 hurdat_epa main 528 507 O_________O___ hurdat_epa EP161982 13.8000 -105.000 TD 30 -1 13.8000 -105.000 1 30 4 346
1982262N12270 1982 81 EP MM PAUL 1982-09-24 15:00:00 TS 13.9943 -105.018 main 507 486 P_________P___ EP161982 14.0075 -105.000 TD 30 -1 13.9548 -105.073 1 28 4 356
1982262N12270 1982 81 EP MM PAUL 1982-09-24 18:00:00 TS 14.1787 -105.027 30 hurdat_epa main 486 479 O_________P___ hurdat_epa EP161982 14.2000 -105.000 TD 30 -1 14.1148 -105.108 1 27 3 347
1982262N12270 1982 81 EP MM PAUL 1982-09-24 21:00:00 TS 14.3031 -105.087 main 479 468 P_________P___ EP161982 14.3150 -105.070 TD 27 -1 14.2674 -105.139 1 26 3 323
1982262N12270 1982 81 EP MM PAUL 1982-09-25 00:00:00 TS 14.4000 -105.200 25 hurdat_epa main 472 466 O_________O___ hurdat_epa EP161982 14.4000 -105.200 TD 25 -1 14.4000 -105.200 1 25 3 306
1982262N12270 1982 81 EP MM PAUL 1982-09-25 03:00:00 TS 14.5068 -105.377 main 471 465 P_________P___ EP161982 14.5075 -105.392 TD 25 -1 14.5047 -105.331 1 26 4 298
1982262N12270 1982 81 EP MM PAUL 1982-09-25 06:00:00 TS 14.5969 -105.574 25 hurdat_epa main 470 466 O_________P___ hurdat_epa EP161982 14.6000 -105.600 TD 25 -1 14.5875 -105.497 1 27 4 294
1982262N12270 1982 81 EP MM PAUL 1982-09-25 09:00:00 TS 14.6616 -105.735 main 466 466 P_________P___ EP161982 14.6650 -105.750 TD 27 -1 14.6515 -105.690 1 28 3 288
1982262N12270 1982 81 EP MM PAUL 1982-09-25 12:00:00 TS 14.7000 -105.900 30 hurdat_epa main 477 477 O_________O___ hurdat_epa EP161982 14.7000 -105.900 TD 30 -1 14.7000 -105.900 1 30 3 277
1982262N12270 1982 81 EP MM PAUL 1982-09-25 15:00:00 TS 14.7047 -106.087 main 489 489 P_________P___ EP161982 14.7000 -106.085 TD 30 -1 14.7189 -106.095 1 31 4 271
1982262N12270 1982 81 EP MM PAUL 1982-09-25 18:00:00 TS 14.7068 -106.301 30 hurdat_epa main 501 501 O_________P___ hurdat_epa EP161982 14.7000 -106.300 TD 30 -1 14.7273 -106.305 1 32 4 274
1982262N12270 1982 81 EP MM PAUL 1982-09-25 21:00:00 TS 14.7380 -106.530 main 514 512 P_________P___ EP161982 14.7349 -106.528 TD 32 -1 14.7470 -106.538 1 33 5 281
1982262N12270 1982 81 EP MM PAUL 1982-09-26 00:00:00 TS 14.8000 -106.800 35 hurdat_epa main 526 526 O_________O___ hurdat_epa EP161982 14.8000 -106.800 TS 35 0 14.8000 -106.800 2 35 6 284
1982262N12270 1982 81 EP MM PAUL 1982-09-26 03:00:00 TS 14.8867 -107.132 main 539 539 P_________P___ EP161982 14.8775 -107.143 TS 35 0 14.9141 -107.100 2 36 7 288
1982262N12270 1982 81 EP MM PAUL 1982-09-26 06:00:00 TS 15.0157 -107.482 35 hurdat_epa main 550 543 O_________P___ hurdat_epa EP161982 15.0000 -107.500 TS 35 0 15.0626 -107.427 2 37 7 296
1982262N12270 1982 81 EP MM PAUL 1982-09-26 09:00:00 TS 15.1961 -107.797 main 549 544 P_________P___ EP161982 15.1849 -107.808 TS 37 0 15.2298 -107.766 2 38 7 303
1982262N12270 1982 81 EP MM PAUL 1982-09-26 12:00:00 TS 15.4000 -108.100 40 hurdat_epa main 550 547 O_________O___ hurdat_epa EP161982 15.4000 -108.100 TS 40 0 15.4000 -108.100 2 40 7 305
1982262N12270 1982 81 EP MM PAUL 1982-09-26 15:00:00 TS 15.6007 -108.405 main 555 554 P_________P___ EP161982 15.6150 -108.400 TS 45 0 15.5581 -108.419 2 43 7 303
1982262N12270 1982 81 EP MM PAUL 1982-09-26 18:00:00 TS 15.7787 -108.708 50 hurdat_epa main 561 561 O_________P___ hurdat_epa EP161982 15.8000 -108.700 TS 50 0 15.7149 -108.730 2 47 7 298
1982262N12270 1982 81 EP MM PAUL 1982-09-26 21:00:00 TS 15.9079 -109.006 main 577 577 P_________P___ EP161982 15.9225 -109.000 TS 52 0 15.8643 -109.026 2 51 6 291
1982262N12270 1982 81 EP MM PAUL 1982-09-27 00:00:00 TS 16.0000 -109.300 55 hurdat_epa main 592 592 O_________O___ hurdat_epa EP161982 16.0000 -109.300 TS 55 0 16.0000 -109.300 2 55 6 284
1982262N12270 1982 81 EP MM PAUL 1982-09-27 03:00:00 TS 16.0548 -109.610 main 607 607 P_________P___ EP161982 16.0425 -109.623 TS 55 0 16.0914 -109.573 2 56 6 282
1982262N12270 1982 81 EP MM PAUL 1982-09-27 06:00:00 TS 16.1182 -109.880 55 hurdat_epa main 631 631 O_________P___ hurdat_epa EP161982 16.1000 -109.900 TS 55 0 16.1727 -109.822 2 57 5 293
1982262N12270 1982 81 EP MM PAUL 1982-09-27 09:00:00 TS 16.2375 -110.069 main 641 634 P_________P___ EP161982 16.2274 -110.080 TS 57 0 16.2676 -110.034 2 58 4 313
1982262N12270 1982 81 EP MM PAUL 1982-09-27 12:00:00 TS 16.4000 -110.200 60 hurdat_epa main 636 629 O_________O___ hurdat_epa EP161982 16.4000 -110.200 TS 60 0 16.4000 -110.200 2 60 4 326
1982262N12270 1982 81 EP MM PAUL 1982-09-27 15:00:00 TS 16.5766 -110.309 main 631 625 P_________P___ EP161982 16.5775 -110.308 TS 65 1 16.5739 -110.312 2 65 4 335
1982262N12270 1982 81 EP MM PAUL 1982-09-27 18:00:00 TS 16.8000 -110.400 70 hurdat_epa main 628 618 O_________O___ hurdat_epa EP161982 16.8000 -110.400 HU 70 1 16.8000 -110.400 3 70 5 339
1982262N12270 1982 81 EP MM PAUL 1982-09-27 21:00:00 TS 17.0847 -110.507 main 618 610 P_________P___ EP161982 17.0850 -110.507 HU 72 1 17.0837 -110.507 3 72 6 342
1982262N12270 1982 81 EP MM PAUL 1982-09-28 00:00:00 TS 17.4000 -110.600 75 hurdat_epa main 610 586 O_________O___ hurdat_epa EP161982 17.4000 -110.600 HU 75 1 17.4000 -110.600 4 75 6 346
1982262N12270 1982 81 EP MM PAUL 1982-09-28 03:00:00 TS 17.7000 -110.664 main 586 552 P_________P___ EP161982 17.7000 -110.665 HU 77 1 17.7000 -110.661 4 76 6 351
1982262N12270 1982 81 EP MM PAUL 1982-09-28 06:00:00 TS 18.0000 -110.699 80 hurdat_epa main 552 519 O_________P___ hurdat_epa EP161982 18.0000 -110.700 HU 80 1 18.0000 -110.694 4 77 6 356
1982262N12270 1982 81 EP MM PAUL 1982-09-28 09:00:00 TS 18.3000 -110.701 main 519 486 P_________P___ EP161982 18.3000 -110.700 HU 80 1 18.3000 -110.705 4 78 6 360
1982262N12270 1982 81 EP MM PAUL 1982-09-28 12:00:00 TS 18.6000 -110.700 80 hurdat_epa main 486 453 O_________O___ hurdat_epa EP161982 18.6000 -110.700 HU 80 1 18.6000 -110.700 4 80 6 356
1982262N12270 1982 81 EP MM PAUL 1982-09-28 15:00:00 TS 18.8949 -110.749 main 453 421 P_________P___ EP161982 18.9000 -110.765 HU 77 1 18.8797 -110.701 4 78 6 353
1982262N12270 1982 81 EP MM PAUL 1982-09-28 18:00:00 TS 19.1906 -110.772 75 hurdat_epa main 421 387 O_________P___ hurdat_epa EP161982 19.2000 -110.800 HU 75 1 19.1625 -110.687 4 77 6 4
1982262N12270 1982 81 EP MM PAUL 1982-09-28 21:00:00 TS 19.4854 -110.711 main 387 352 P_________P___ EP161982 19.4925 -110.730 HU 75 1 19.4640 -110.654 4 76 6 15
1982262N12270 1982 81 EP MM PAUL 1982-09-29 00:00:00 TS 19.8000 -110.600 75 hurdat_epa main 352 317 O_________O___ hurdat_epa EP161982 19.8000 -110.600 HU 75 1 19.8000 -110.600 4 75 7 20
1982262N12270 1982 81 EP MM PAUL 1982-09-29 03:00:00 TS 20.1261 -110.467 main 317 270 P_________P___ EP161982 20.1200 -110.443 HU 80 1 20.1444 -110.541 4 80 8 19
1982262N12270 1982 81 EP MM PAUL 1982-09-29 06:00:00 TS 20.5075 -110.340 85 hurdat_epa main 270 225 O_________P___ hurdat_epa EP161982 20.5000 -110.300 HU 85 2 20.5300 -110.459 4 85 9 11
1982262N12270 1982 81 EP MM PAUL 1982-09-29 09:00:00 TS 20.9769 -110.291 main 214 157 P_________P___ EP161982 20.9774 -110.272 HU 90 2 20.9756 -110.347 4 90 10 7
1982262N12270 1982 81 EP MM PAUL 1982-09-29 12:00:00 TS 21.5000 -110.200 95 hurdat_epa main 157 100 O_________O___ hurdat_epa EP161982 21.5000 -110.200 HU 95 2 21.5000 -110.200 4 95 11 18
1982262N12270 1982 81 EP MM PAUL 1982-09-29 15:00:00 TS 21.9865 -109.935 main 100 45 P_________P___ EP161982 21.9402 -109.915 HU 95 2 22.1253 -109.993 4 95 12 26
1982262N12270 1982 81 EP MM PAUL 1982-09-29 18:00:00 TS 22.5813 -109.639 95 hurdat_epa main 39 0 O_________P___ hurdat_epa EP161982 22.5000 -109.600 HU 95 2 22.8254 -109.755 4 95 15 17
1982262N12270 1982 81 EP MM PAUL 1982-09-29 21:00:00 TS 23.4181 -109.449 main 0 0 P_________P___ EP161982 23.3699 -109.427 HU 95 2 23.5628 -109.513 4 95 18 10
1982262N12270 1982 81 EP MM PAUL 1982-09-30 00:00:00 TS 24.3000 -109.300 95 hurdat_epa main 60 56 O_________O___ hurdat_epa EP161982 24.3000 -109.300 HU 95 2 24.3000 -109.300 4 95 17 9
1982262N12270 1982 81 EP MM PAUL 1982-09-30 03:00:00 TS 25.0473 -109.152 main 56 0 P_________P___ EP161982 25.0600 -109.158 HU 90 2 25.0093 -109.135 4 90 14 11
1982262N12270 1982 81 EP MM PAUL 1982-09-30 06:00:00 TS 25.7000 -109.000 85 hurdat_epa main 0 O_________O___ hurdat_epa EP161982 25.7000 -109.000 HU 85 2 25.7000 -109.000 4 85 13 12

About IBTrACS Database

This database is a web-friendly format of International Best Track Archive for Climate Stewardship (IBTrACS), a global best track data archive curated by NOAA dating back to 1842.

Updated: 2021-10-27